sim
Sign-in with your pilot id or email,
or register
Callsign
Passwort

Schedule Details

Flight Number: OEC2266
Departure: Trondheim Airport Værnes (ENVA) at Time
Arrival: Tromso Airport (ENTC) at Time
Route: NIGEX AMIMO

Weather Information
Getting current METAR information for ENVA 200150Z 11008KT 9999 SCT040 BKN080 05/04 Q1018 RMK WIND 670FT 17009KT
Getting current METAR information for ENTC 200050Z 19015KT 9999 FEW013 SCT019 OVC026 06/03 Q1005 RMK WIND 2600FT 18024KT

Schedule Frequency

Route Map